createdAt,value
2017-09-22T00:00:05.445Z,0.00
2017-09-22T00:01:05.779Z,0.00
2017-09-22T00:02:05.512Z,0.00
2017-09-22T00:03:05.544Z,0.00
2017-09-22T00:04:05.581Z,0.00
2017-09-22T00:05:05.814Z,0.00
2017-09-22T00:06:05.644Z,0.00
2017-09-22T00:07:05.687Z,0.00
2017-09-22T00:08:06.008Z,0.00
2017-09-22T00:09:05.741Z,0.00
2017-09-22T00:10:05.778Z,0.00
2017-09-22T00:11:05.809Z,0.00
2017-09-22T00:12:05.847Z,0.00
2017-09-22T00:13:05.872Z,0.00
2017-09-22T00:14:05.904Z,0.00
2017-09-22T00:15:06.239Z,0.00
2017-09-22T00:16:06.127Z,0.00
2017-09-22T00:17:06.026Z,0.00
2017-09-22T00:18:06.059Z,0.00
2017-09-22T00:19:06.070Z,0.00
2017-09-22T00:20:06.104Z,0.00
2017-09-22T00:21:06.143Z,0.00
2017-09-22T00:22:06.467Z,0.00
2017-09-22T00:23:06.204Z,0.00
2017-09-22T00:24:06.237Z,0.00
2017-09-22T00:25:06.265Z,0.00
2017-09-22T00:26:06.350Z,0.00
2017-09-22T00:27:06.381Z,0.00
2017-09-22T00:28:06.670Z,0.00
2017-09-22T00:29:06.397Z,0.00
2017-09-22T00:30:06.440Z,0.00
2017-09-22T00:31:06.540Z,0.00
2017-09-22T00:32:06.495Z,0.00
2017-09-22T00:33:06.535Z,0.00
2017-09-22T00:34:06.861Z,0.00
2017-09-22T00:35:06.646Z,0.00
2017-09-22T00:36:06.627Z,0.00
2017-09-22T00:37:06.667Z,0.00
2017-09-22T00:38:06.689Z,0.00
2017-09-22T00:39:06.730Z,0.00
2017-09-22T00:40:07.054Z,0.00
2017-09-22T00:41:06.803Z,0.00
2017-09-22T00:42:06.835Z,0.00
2017-09-22T00:43:06.875Z,0.00
2017-09-22T00:44:06.886Z,0.00
2017-09-22T00:45:06.925Z,0.00
2017-09-22T00:46:07.255Z,0.00
2017-09-22T00:47:07.138Z,0.00
2017-09-22T00:48:07.026Z,0.00
2017-09-22T00:49:07.086Z,0.00
2017-09-22T00:50:07.084Z,0.00
2017-09-22T00:51:07.178Z,0.00
2017-09-22T00:52:07.447Z,0.00
2017-09-22T00:53:07.180Z,0.00
2017-09-22T00:54:07.229Z,0.00
2017-09-22T00:55:07.249Z,0.00
2017-09-22T00:56:07.292Z,0.00
2017-09-22T00:57:07.360Z,0.00
2017-09-22T00:58:07.647Z,0.00
2017-09-22T00:59:07.380Z,0.00
2017-09-22T01:00:07.417Z,0.00
2017-09-22T01:01:07.449Z,0.00
2017-09-22T01:02:07.480Z,0.00
2017-09-22T01:03:07.506Z,0.00
2017-09-22T01:04:07.841Z,0.00
2017-09-22T01:05:07.575Z,0.00
2017-09-22T01:06:07.604Z,0.00
2017-09-22T01:07:07.646Z,0.00
2017-09-22T01:08:07.867Z,0.00
2017-09-22T01:09:07.706Z,0.00
2017-09-22T01:10:08.035Z,0.00
2017-09-22T01:11:07.769Z,0.00
2017-09-22T01:12:07.880Z,0.00
2017-09-22T01:13:07.831Z,0.00
2017-09-22T01:14:07.881Z,0.00
2017-09-22T01:15:07.897Z,0.00
2017-09-22T01:16:08.250Z,0.00
2017-09-22T01:17:07.963Z,0.00
2017-09-22T01:18:08.102Z,0.00
2017-09-22T01:19:08.082Z,0.00
2017-09-22T01:20:08.079Z,0.00
2017-09-22T01:21:08.098Z,0.00
2017-09-22T01:22:08.459Z,0.00
2017-09-22T01:23:08.214Z,0.00
2017-09-22T01:24:08.255Z,0.00
2017-09-22T01:25:08.222Z,0.00
2017-09-22T01:26:08.282Z,0.00
2017-09-22T01:27:08.297Z,0.00
2017-09-22T01:28:08.623Z,0.00
2017-09-22T01:29:08.616Z,0.00
2017-09-22T01:30:08.437Z,0.00
2017-09-22T01:31:08.424Z,0.00
2017-09-22T01:32:08.457Z,0.00
2017-09-22T01:33:08.483Z,0.00
2017-09-22T01:34:08.823Z,0.00
2017-09-22T01:35:08.562Z,0.00
2017-09-22T01:36:08.605Z,0.00
2017-09-22T01:37:08.611Z,0.00
2017-09-22T01:38:08.898Z,0.00
2017-09-22T01:39:08.679Z,0.00
2017-09-22T01:40:08.717Z,0.00
2017-09-22T01:41:09.061Z,0.00
2017-09-22T01:42:08.804Z,0.00
2017-09-22T01:43:08.811Z,0.00
2017-09-22T01:44:08.964Z,0.00
2017-09-22T01:45:08.883Z,0.00
2017-09-22T01:46:08.921Z,0.00
2017-09-22T01:47:08.937Z,0.00
2017-09-22T01:48:09.273Z,0.00
2017-09-22T01:49:09.004Z,0.00
2017-09-22T01:50:09.039Z,0.00
2017-09-22T01:51:09.068Z,0.00
2017-09-22T01:52:09.102Z,0.00
2017-09-22T01:53:09.132Z,0.00
2017-09-22T01:54:09.169Z,0.00
2017-09-22T01:55:09.497Z,0.00
2017-09-22T01:56:09.266Z,0.00
2017-09-22T01:57:09.262Z,0.00
2017-09-22T01:58:09.347Z,0.00
2017-09-22T01:59:09.377Z,0.00
2017-09-22T02:00:09.369Z,0.00
2017-09-22T02:01:09.394Z,0.00
2017-09-22T02:02:09.730Z,0.00
2017-09-22T02:03:09.461Z,0.00
2017-09-22T02:04:09.490Z,0.00
2017-09-22T02:05:09.522Z,0.00
2017-09-22T02:06:09.613Z,0.00
2017-09-22T02:07:09.588Z,0.00
2017-09-22T02:08:09.694Z,0.00
2017-09-22T02:09:09.948Z,0.00
2017-09-22T02:10:09.691Z,0.00
2017-09-22T02:11:09.717Z,0.00
2017-09-22T02:12:09.768Z,0.00
2017-09-22T02:13:09.831Z,0.00
2017-09-22T02:14:09.816Z,0.00
2017-09-22T02:15:09.846Z,0.00
2017-09-22T02:16:10.181Z,0.00
2017-09-22T02:17:09.911Z,0.00
2017-09-22T02:18:09.945Z,0.00
2017-09-22T02:19:10.129Z,0.00
2017-09-22T02:20:10.005Z,0.00
2017-09-22T02:21:10.039Z,0.00
2017-09-22T02:22:10.096Z,0.00
2017-09-22T02:23:10.407Z,0.00
2017-09-22T02:24:10.187Z,0.00
2017-09-22T02:25:10.189Z,0.00
2017-09-22T02:26:10.253Z,0.00
2017-09-22T02:27:10.286Z,0.00
2017-09-22T02:28:10.270Z,0.00
2017-09-22T02:29:10.301Z,0.00
2017-09-22T02:30:10.635Z,0.00
2017-09-22T02:31:10.377Z,0.00
2017-09-22T02:32:10.427Z,0.00
2017-09-22T02:33:10.425Z,0.00
2017-09-22T02:34:10.459Z,0.00
2017-09-22T02:35:10.497Z,0.00
2017-09-22T02:36:10.525Z,0.00
2017-09-22T02:37:10.855Z,0.00
2017-09-22T02:38:10.620Z,0.00
2017-09-22T02:39:10.626Z,0.00
2017-09-22T02:40:10.670Z,0.00
2017-09-22T02:41:10.691Z,0.00
2017-09-22T02:42:10.738Z,0.00
2017-09-22T02:43:11.790Z,0.00
2017-09-22T02:44:11.083Z,0.00
2017-09-22T02:45:10.823Z,0.00
2017-09-22T02:46:10.876Z,0.00
2017-09-22T02:47:10.884Z,0.00
2017-09-22T02:48:10.928Z,0.00
2017-09-22T02:49:10.954Z,0.00
2017-09-22T02:50:10.983Z,0.00
2017-09-22T02:51:11.337Z,0.00
2017-09-22T02:52:11.045Z,0.00
2017-09-22T02:53:11.072Z,0.00
2017-09-22T02:54:11.122Z,0.00
2017-09-22T02:55:11.162Z,0.00
2017-09-22T02:56:11.186Z,0.00
2017-09-22T02:57:11.255Z,0.00
2017-09-22T02:58:11.546Z,0.00
2017-09-22T02:59:11.269Z,0.00
2017-09-22T03:00:11.295Z,0.00
2017-09-22T03:01:11.328Z,0.00
2017-09-22T03:02:11.388Z,0.00
2017-09-22T03:03:11.394Z,0.00
2017-09-22T03:04:11.806Z,0.00
2017-09-22T03:05:11.554Z,0.00
2017-09-22T03:06:11.543Z,0.00
2017-09-22T03:07:11.524Z,0.00
2017-09-22T03:08:11.558Z,0.00
2017-09-22T03:09:11.586Z,0.00
2017-09-22T03:10:11.925Z,0.00
2017-09-22T03:11:11.667Z,0.00
2017-09-22T03:12:11.765Z,0.00
2017-09-22T03:13:11.718Z,0.00
2017-09-22T03:14:11.751Z,0.00
2017-09-22T03:15:11.777Z,0.00
2017-09-22T03:16:12.111Z,0.00
2017-09-22T03:17:11.844Z,0.00
2017-09-22T03:18:11.878Z,0.00
2017-09-22T03:19:11.915Z,0.00
2017-09-22T03:20:11.938Z,0.00
2017-09-22T03:21:11.969Z,0.00
2017-09-22T03:22:12.306Z,0.00
2017-09-22T03:23:12.038Z,0.00
2017-09-22T03:24:12.067Z,0.00
2017-09-22T03:25:12.147Z,0.00
2017-09-22T03:26:12.133Z,0.00
2017-09-22T03:27:12.166Z,0.00
2017-09-22T03:28:12.493Z,0.00
2017-09-22T03:29:12.226Z,0.00
2017-09-22T03:30:12.259Z,0.00
2017-09-22T03:31:12.342Z,0.00
2017-09-22T03:32:12.325Z,0.00
2017-09-22T03:33:12.357Z,0.00
2017-09-22T03:34:12.686Z,0.00
2017-09-22T03:35:12.420Z,0.00
2017-09-22T03:36:12.555Z,0.00
2017-09-22T03:37:12.534Z,0.00
2017-09-22T03:38:12.520Z,0.00
2017-09-22T03:39:12.553Z,0.00
2017-09-22T03:40:12.885Z,0.00
2017-09-22T03:41:12.666Z,0.00
2017-09-22T03:42:12.678Z,0.00
2017-09-22T03:43:12.681Z,0.00
2017-09-22T03:44:12.773Z,0.00
2017-09-22T03:45:12.744Z,0.00
2017-09-22T03:46:13.073Z,0.00
2017-09-22T03:47:12.856Z,0.00
2017-09-22T03:48:12.834Z,0.00
2017-09-22T03:49:12.870Z,0.00
2017-09-22T03:50:12.925Z,0.00
2017-09-22T03:51:13.006Z,0.00
2017-09-22T03:52:13.265Z,0.00
2017-09-22T03:53:13.030Z,0.00
2017-09-22T03:54:13.042Z,0.00
2017-09-22T03:55:13.070Z,0.00
2017-09-22T03:56:13.193Z,0.00
2017-09-22T03:57:13.137Z,0.00
2017-09-22T03:58:13.456Z,0.00
2017-09-22T03:59:13.192Z,0.00
2017-09-22T04:00:13.222Z,0.00
2017-09-22T04:01:13.255Z,0.00
2017-09-22T04:02:13.416Z,0.00
2017-09-22T04:03:13.317Z,0.00
2017-09-22T04:04:13.652Z,0.00
2017-09-22T04:05:13.379Z,0.00
2017-09-22T04:06:13.434Z,0.00
2017-09-22T04:07:13.501Z,0.00
2017-09-22T04:08:13.477Z,0.00
2017-09-22T04:09:13.512Z,0.00
2017-09-22T04:10:13.914Z,0.00
2017-09-22T04:11:13.638Z,0.00
2017-09-22T04:12:13.709Z,0.00
2017-09-22T04:13:13.636Z,0.00
2017-09-22T04:14:13.669Z,0.00
2017-09-22T04:15:13.702Z,0.00
2017-09-22T04:16:13.734Z,0.00
2017-09-22T04:17:14.068Z,0.00
2017-09-22T04:18:13.799Z,0.00
2017-09-22T04:19:13.830Z,0.00
2017-09-22T04:20:13.860Z,0.00
2017-09-22T04:21:13.900Z,0.00
2017-09-22T04:22:13.931Z,0.00
2017-09-22T04:23:13.959Z,0.00
2017-09-22T04:24:14.294Z,0.00
2017-09-22T04:25:14.043Z,0.00
2017-09-22T04:26:14.054Z,0.00
2017-09-22T04:27:14.136Z,0.00
2017-09-22T04:28:14.171Z,0.00
2017-09-22T04:29:14.150Z,0.00
2017-09-22T04:30:14.185Z,0.00
2017-09-22T04:31:14.516Z,0.00
2017-09-22T04:32:14.251Z,0.00
2017-09-22T04:33:14.332Z,0.00
2017-09-22T04:34:14.310Z,0.00
2017-09-22T04:35:14.391Z,0.00
2017-09-22T04:36:14.373Z,0.00
2017-09-22T04:37:14.408Z,0.00
2017-09-22T04:38:14.745Z,0.00
2017-09-22T04:39:14.486Z,0.00
2017-09-22T04:40:14.511Z,0.00
2017-09-22T04:41:14.561Z,0.00
2017-09-22T04:42:14.581Z,0.00
2017-09-22T04:43:15.053Z,0.00
2017-09-22T04:44:14.632Z,0.00
2017-09-22T04:45:14.963Z,0.00
2017-09-22T04:46:14.734Z,0.00
2017-09-22T04:47:14.751Z,0.00
2017-09-22T04:48:14.759Z,0.00
2017-09-22T04:49:14.846Z,0.00
2017-09-22T04:50:14.819Z,0.00
2017-09-22T04:51:14.853Z,0.00
2017-09-22T04:52:15.185Z,0.00
2017-09-22T04:53:15.018Z,0.00
2017-09-22T04:54:14.950Z,0.00
2017-09-22T04:55:15.019Z,0.00
2017-09-22T04:56:15.018Z,0.00
2017-09-22T04:57:15.046Z,0.00
2017-09-22T04:58:15.076Z,0.00
2017-09-22T04:59:15.515Z,0.00
2017-09-22T05:00:15.142Z,0.00
2017-09-22T05:01:15.179Z,0.00
2017-09-22T05:02:15.205Z,0.00
2017-09-22T05:03:15.255Z,0.00
2017-09-22T05:04:15.367Z,0.00
2017-09-22T05:05:15.600Z,0.00
2017-09-22T05:06:15.330Z,0.00
2017-09-22T05:07:15.373Z,0.00
2017-09-22T05:08:15.395Z,0.00
2017-09-22T05:09:15.431Z,0.00
2017-09-22T05:10:15.458Z,0.00
2017-09-22T05:11:15.502Z,0.00
2017-09-22T05:12:15.822Z,0.00
2017-09-22T05:13:15.570Z,0.00
2017-09-22T05:15:15.618Z,0.00
2017-09-22T05:16:15.655Z,0.00
2017-09-22T05:17:15.689Z,0.00
2017-09-22T05:18:16.015Z,0.00
2017-09-22T05:19:15.747Z,0.00
2017-09-22T05:20:15.778Z,0.00
2017-09-22T05:21:15.818Z,0.00
2017-09-22T05:22:15.846Z,0.00
2017-09-22T05:23:15.877Z,0.00
2017-09-22T05:24:15.909Z,0.00
2017-09-22T05:25:16.247Z,0.00
2017-09-22T05:26:15.973Z,5.63
2017-09-22T05:27:16.063Z,5.63
2017-09-22T05:28:16.082Z,5.63
2017-09-22T05:29:16.074Z,5.63
2017-09-22T05:30:16.102Z,5.63
2017-09-22T05:31:16.131Z,5.63
2017-09-22T05:32:16.161Z,5.63
2017-09-22T05:33:16.204Z,5.63
2017-09-22T05:34:16.225Z,5.63
2017-09-22T05:35:16.265Z,5.63
2017-09-22T05:36:16.601Z,5.63
2017-09-22T05:37:16.319Z,11.25
2017-09-22T05:38:16.354Z,11.25
2017-09-22T05:39:16.391Z,11.25
2017-09-22T05:40:16.620Z,11.25
2017-09-22T05:41:16.447Z,11.25
2017-09-22T05:42:16.783Z,11.25
2017-09-22T05:43:16.513Z,11.25
2017-09-22T05:44:16.542Z,11.25
2017-09-22T05:45:16.577Z,11.25
2017-09-22T05:46:16.811Z,11.25
2017-09-22T05:47:16.640Z,11.25
2017-09-22T05:48:16.979Z,16.88
2017-09-22T05:49:16.703Z,16.88
2017-09-22T05:50:16.742Z,16.88
2017-09-22T05:51:16.765Z,16.88
2017-09-22T05:52:16.799Z,16.88
2017-09-22T05:53:16.835Z,16.88
2017-09-22T05:54:17.160Z,16.88
2017-09-22T05:55:16.896Z,16.88
2017-09-22T05:56:16.930Z,16.88
2017-09-22T05:57:17.107Z,16.88
2017-09-22T05:58:16.995Z,22.50
2017-09-22T05:59:17.020Z,22.50
2017-09-22T06:00:17.383Z,22.50
2017-09-22T06:01:17.083Z,22.50
2017-09-22T06:02:17.117Z,22.50
2017-09-22T06:03:17.149Z,22.50
2017-09-22T06:04:17.199Z,22.50
2017-09-22T06:05:17.231Z,22.50
2017-09-22T06:06:17.567Z,22.50
2017-09-22T06:07:17.279Z,28.13
2017-09-22T06:08:17.333Z,28.13
2017-09-22T06:09:17.361Z,28.13
2017-09-22T06:10:17.377Z,28.13
2017-09-22T06:11:17.523Z,28.13
2017-09-22T06:12:17.459Z,28.13
2017-09-22T06:13:17.768Z,28.13
2017-09-22T06:14:17.503Z,28.13
2017-09-22T06:15:17.540Z,28.13
2017-09-22T06:16:17.571Z,28.13
2017-09-22T06:17:17.597Z,28.13
2017-09-22T06:18:17.633Z,28.13
2017-09-22T06:19:18.019Z,28.13
2017-09-22T06:20:17.692Z,33.75
2017-09-22T06:21:17.724Z,33.75
2017-09-22T06:22:17.758Z,33.75
2017-09-22T06:23:17.789Z,33.75
2017-09-22T06:24:17.821Z,33.75
2017-09-22T06:25:18.158Z,33.75
2017-09-22T06:26:17.887Z,33.75
2017-09-22T06:27:17.919Z,39.38
2017-09-22T06:28:17.967Z,39.38
2017-09-22T06:29:17.987Z,39.38
2017-09-22T06:30:18.018Z,39.38
2017-09-22T06:31:18.351Z,39.38
2017-09-22T06:32:18.083Z,39.38
2017-09-22T06:33:18.161Z,39.38
2017-09-22T06:34:18.142Z,39.38
2017-09-22T06:35:18.184Z,39.38
2017-09-22T06:36:18.208Z,39.38
2017-09-22T06:37:18.545Z,39.38
2017-09-22T06:38:18.284Z,39.38
2017-09-22T06:39:18.316Z,39.38
2017-09-22T06:40:18.354Z,39.38
2017-09-22T06:41:18.369Z,45.00
2017-09-22T06:42:18.627Z,45.00
2017-09-22T06:43:18.734Z,45.00
2017-09-22T06:44:18.530Z,45.00
2017-09-22T06:45:18.502Z,50.63
2017-09-22T06:46:18.532Z,50.63
2017-09-22T06:47:18.564Z,50.63
2017-09-22T06:48:18.646Z,50.63
2017-09-22T06:49:19.083Z,50.63
2017-09-22T06:50:18.704Z,50.63
2017-09-22T06:51:18.699Z,50.63
2017-09-22T06:52:18.727Z,50.63
2017-09-22T06:53:18.760Z,50.63
2017-09-22T06:54:18.796Z,50.63
2017-09-22T06:55:19.123Z,50.63
2017-09-22T06:56:18.864Z,50.63
2017-09-22T06:57:19.037Z,50.63
2017-09-22T06:58:18.919Z,56.25
2017-09-22T06:59:18.955Z,56.25
2017-09-22T07:00:18.987Z,56.25
2017-09-22T07:01:19.330Z,56.25
2017-09-22T07:02:19.055Z,56.25
2017-09-22T07:03:19.086Z,56.25
2017-09-22T07:04:19.175Z,56.25
2017-09-22T07:05:19.149Z,56.25
2017-09-22T07:06:19.178Z,56.25
2017-09-22T07:07:19.526Z,56.25
2017-09-22T07:08:19.256Z,61.88
2017-09-22T07:09:19.282Z,61.88
2017-09-22T07:10:19.311Z,56.25
2017-09-22T07:11:19.357Z,56.25
2017-09-22T07:12:19.455Z,56.25
2017-09-22T07:13:19.724Z,56.25
2017-09-22T07:14:19.442Z,50.63
2017-09-22T07:15:19.477Z,50.63
2017-09-22T07:16:19.503Z,50.63
2017-09-22T07:17:19.545Z,50.63
2017-09-22T07:18:19.620Z,50.63
2017-09-22T07:19:19.907Z,50.63
2017-09-22T07:20:19.655Z,50.63
2017-09-22T07:21:19.671Z,50.63
2017-09-22T07:22:19.701Z,50.63
2017-09-22T07:23:19.737Z,50.63
2017-09-22T07:24:19.815Z,50.63
2017-09-22T07:25:20.099Z,56.25
2017-09-22T07:26:19.830Z,56.25
2017-09-22T07:27:19.867Z,56.25
2017-09-22T07:28:19.948Z,56.25
2017-09-22T07:29:19.941Z,56.25
2017-09-22T07:30:20.017Z,56.25
2017-09-22T07:31:20.297Z,56.25
2017-09-22T07:32:20.031Z,56.25
2017-09-22T07:33:20.113Z,56.25
2017-09-22T07:34:20.096Z,56.25
2017-09-22T07:35:20.139Z,56.25
2017-09-22T07:36:20.157Z,56.25
2017-09-22T07:37:20.493Z,56.25
2017-09-22T07:38:20.323Z,56.25
2017-09-22T07:39:20.269Z,56.25
2017-09-22T07:40:20.304Z,56.25
2017-09-22T07:41:20.350Z,61.88
2017-09-22T07:42:20.360Z,61.88
2017-09-22T07:43:20.394Z,56.25
2017-09-22T07:44:21.069Z,56.25
2017-09-22T07:45:20.460Z,61.88
2017-09-22T07:46:20.494Z,61.88
2017-09-22T07:47:20.533Z,61.88
2017-09-22T07:48:20.554Z,67.50
2017-09-22T07:49:20.639Z,67.50
2017-09-22T07:50:20.919Z,73.13
2017-09-22T07:51:20.655Z,73.13
2017-09-22T07:52:20.718Z,73.13
2017-09-22T07:53:20.721Z,78.75
2017-09-22T07:54:20.931Z,78.75
2017-09-22T07:55:20.788Z,78.75
2017-09-22T07:56:21.122Z,78.75
2017-09-22T07:57:20.853Z,84.38
2017-09-22T07:58:20.877Z,84.38
2017-09-22T07:59:21.069Z,84.38
2017-09-22T08:00:20.942Z,84.38
2017-09-22T08:01:20.981Z,78.75
2017-09-22T08:02:21.315Z,84.38
2017-09-22T08:03:21.117Z,78.75
2017-09-22T08:04:21.112Z,78.75
2017-09-22T08:05:21.307Z,73.13
2017-09-22T08:06:21.319Z,73.13
2017-09-22T08:07:21.549Z,67.50
2017-09-22T08:08:21.509Z,67.50
2017-09-22T08:09:21.304Z,67.50
2017-09-22T08:10:21.274Z,67.50
2017-09-22T08:11:21.507Z,67.50
2017-09-22T08:12:21.375Z,73.13
2017-09-22T08:13:21.369Z,73.13
2017-09-22T08:14:21.740Z,78.75
2017-09-22T08:15:21.492Z,78.75
2017-09-22T08:16:21.472Z,78.75
2017-09-22T08:17:21.503Z,78.75
2017-09-22T08:18:21.668Z,78.75
2017-09-22T08:19:21.878Z,78.75
2017-09-22T08:20:21.904Z,78.75
2017-09-22T08:21:21.781Z,78.75
2017-09-22T08:22:21.975Z,73.13
2017-09-22T08:23:21.912Z,73.13
2017-09-22T08:24:21.741Z,73.13
2017-09-22T08:25:21.769Z,73.13
2017-09-22T08:26:22.163Z,73.13
2017-09-22T08:27:22.087Z,73.13
2017-09-22T08:28:21.868Z,78.75
2017-09-22T08:29:22.024Z,78.75
2017-09-22T08:31:22.020Z,78.75
2017-09-22T08:32:22.001Z,78.75
2017-09-22T08:33:22.033Z,78.75
2017-09-22T08:34:22.111Z,78.75
2017-09-22T08:35:22.163Z,78.75
2017-09-22T08:36:22.136Z,78.75
2017-09-22T08:37:22.174Z,78.75
2017-09-22T08:38:22.224Z,78.75
2017-09-22T08:39:22.547Z,78.75
2017-09-22T08:40:22.266Z,78.75
2017-09-22T08:41:22.374Z,78.75
2017-09-22T08:42:22.344Z,78.75
2017-09-22T08:43:22.372Z,84.38
2017-09-22T08:44:22.403Z,84.38
2017-09-22T08:45:22.734Z,84.38
2017-09-22T08:46:22.508Z,90.00
2017-09-22T08:47:22.499Z,90.00
2017-09-22T08:48:22.529Z,90.00
2017-09-22T08:49:22.565Z,84.38
2017-09-22T08:50:22.618Z,84.38
2017-09-22T08:51:22.983Z,84.38
2017-09-22T08:52:22.776Z,84.38
2017-09-22T08:53:22.703Z,84.38
2017-09-22T08:54:22.883Z,84.38
2017-09-22T08:55:22.763Z,84.38
2017-09-22T08:56:22.799Z,84.38
2017-09-22T08:57:23.135Z,90.00
2017-09-22T08:58:22.903Z,95.63
2017-09-22T08:59:22.893Z,95.63
2017-09-22T09:00:22.993Z,101.25
2017-09-22T09:01:22.964Z,101.25
2017-09-22T09:02:23.051Z,106.88
2017-09-22T09:03:23.390Z,106.88
2017-09-22T09:04:23.061Z,112.50
2017-09-22T09:05:23.094Z,118.13
2017-09-22T09:06:23.281Z,123.75
2017-09-22T09:07:23.181Z,123.75
2017-09-22T09:08:23.193Z,129.38
2017-09-22T09:09:23.526Z,123.75
2017-09-22T09:10:23.263Z,123.75
2017-09-22T09:11:23.294Z,118.13
2017-09-22T09:12:23.326Z,118.13
2017-09-22T09:13:23.423Z,112.50
2017-09-22T09:14:23.394Z,112.50
2017-09-22T09:15:23.728Z,112.50
2017-09-22T09:16:23.467Z,112.50
2017-09-22T09:17:23.501Z,112.50
2017-09-22T09:18:23.529Z,112.50
2017-09-22T09:19:23.664Z,112.50
2017-09-22T09:20:23.593Z,112.50
2017-09-22T09:21:23.945Z,112.50
2017-09-22T09:22:23.665Z,118.13
2017-09-22T09:23:23.716Z,118.13
2017-09-22T09:24:23.781Z,118.13
2017-09-22T09:25:23.763Z,123.75
2017-09-22T09:26:23.794Z,123.75
2017-09-22T09:27:23.829Z,123.75
2017-09-22T09:28:24.162Z,123.75
2017-09-22T09:29:24.155Z,123.75
2017-09-22T09:30:23.928Z,123.75
2017-09-22T09:31:23.971Z,123.75
2017-09-22T09:32:24.002Z,123.75
2017-09-22T09:33:24.033Z,123.75
2017-09-22T09:34:24.375Z,123.75
2017-09-22T09:35:24.151Z,123.75
2017-09-22T09:36:24.160Z,118.13
2017-09-22T09:37:24.170Z,123.75
2017-09-22T09:38:24.208Z,123.75
2017-09-22T09:39:24.239Z,123.75
2017-09-22T09:40:24.464Z,129.38
2017-09-22T09:41:24.603Z,129.38
2017-09-22T09:42:24.340Z,129.38
2017-09-22T09:43:24.387Z,129.38
2017-09-22T09:44:24.412Z,129.38
2017-09-22T09:45:24.442Z,129.38
2017-09-22T09:46:24.626Z,135.00
2017-09-22T09:47:24.503Z,135.00
2017-09-22T09:48:24.843Z,135.00
2017-09-22T09:49:24.570Z,135.00
2017-09-22T09:50:24.615Z,135.00
2017-09-22T09:51:24.640Z,135.00
2017-09-22T09:52:24.678Z,135.00
2017-09-22T09:53:24.705Z,135.00
2017-09-22T09:54:25.041Z,140.63
2017-09-22T09:55:24.771Z,140.63
2017-09-22T09:56:24.855Z,140.63
2017-09-22T09:57:24.842Z,140.63
2017-09-22T09:58:24.873Z,140.63
2017-09-22T09:59:24.923Z,146.25
2017-09-22T10:00:25.243Z,146.25
2017-09-22T10:01:25.030Z,151.88
2017-09-22T10:02:25.010Z,157.50
2017-09-22T10:03:25.052Z,157.50
2017-09-22T10:04:25.080Z,157.50
2017-09-22T10:05:25.115Z,157.50
2017-09-22T10:06:25.597Z,157.50
2017-09-22T10:07:25.184Z,163.13
2017-09-22T10:08:25.211Z,163.13
2017-09-22T10:09:25.256Z,163.13
2017-09-22T10:10:25.284Z,163.13
2017-09-22T10:11:25.321Z,163.13
2017-09-22T10:12:25.654Z,168.75
2017-09-22T10:13:25.400Z,168.75
2017-09-22T10:14:25.479Z,168.75
2017-09-22T10:15:25.451Z,168.75
2017-09-22T10:16:25.541Z,168.75
2017-09-22T10:17:25.520Z,168.75
2017-09-22T10:18:25.560Z,174.38
2017-09-22T10:19:25.891Z,174.38
2017-09-22T10:20:25.623Z,174.38
2017-09-22T10:21:25.655Z,174.38
2017-09-22T10:22:25.695Z,174.38
2017-09-22T10:23:25.730Z,180.00
2017-09-22T10:24:25.760Z,180.00
2017-09-22T10:25:26.099Z,180.00
2017-09-22T10:26:25.828Z,180.00
2017-09-22T10:27:25.875Z,180.00
2017-09-22T10:28:25.897Z,180.00
2017-09-22T10:29:25.939Z,180.00
2017-09-22T10:30:25.974Z,180.00
2017-09-22T10:31:26.362Z,185.63
2017-09-22T10:32:26.039Z,185.63
2017-09-22T10:33:26.084Z,185.63
2017-09-22T10:34:26.105Z,185.63
2017-09-22T10:35:26.153Z,185.63
2017-09-22T10:36:26.330Z,191.25
2017-09-22T10:37:26.217Z,191.25
2017-09-22T10:38:26.601Z,191.25
2017-09-22T10:39:26.279Z,191.25
2017-09-22T10:40:26.320Z,191.25
2017-09-22T10:41:26.350Z,191.25
2017-09-22T10:42:26.384Z,191.25
2017-09-22T10:43:26.413Z,191.25
2017-09-22T10:44:26.456Z,191.25
2017-09-22T10:45:26.787Z,191.25
2017-09-22T10:46:26.519Z,185.63
2017-09-22T10:47:26.605Z,185.63
2017-09-22T10:48:26.591Z,185.63
2017-09-22T10:49:26.624Z,185.63
2017-09-22T10:50:26.660Z,180.00
2017-09-22T10:51:27.000Z,180.00
2017-09-22T10:52:26.882Z,180.00
2017-09-22T10:53:26.789Z,185.63
2017-09-22T10:54:26.794Z,185.63
2017-09-22T10:55:27.087Z,180.00
2017-09-22T10:56:26.880Z,180.00
2017-09-22T10:57:27.204Z,180.00
2017-09-22T10:58:28.152Z,174.38
2017-09-22T10:59:26.978Z,174.38
2017-09-22T11:00:27.002Z,174.38
2017-09-22T11:01:27.088Z,174.38
2017-09-22T11:02:27.075Z,174.38
2017-09-22T11:03:27.108Z,174.38
2017-09-22T11:04:27.142Z,174.38
2017-09-22T11:05:27.178Z,174.38
2017-09-22T11:06:27.314Z,174.38
2017-09-22T11:07:27.245Z,180.00
2017-09-22T11:08:27.301Z,180.00
2017-09-22T11:09:27.617Z,180.00
2017-09-22T11:10:27.353Z,180.00
2017-09-22T11:11:27.386Z,180.00
2017-09-22T11:12:27.570Z,180.00
2017-09-22T11:13:27.468Z,185.63
2017-09-22T11:14:27.506Z,191.25
2017-09-22T11:15:27.830Z,185.63
2017-09-22T11:16:27.562Z,191.25
2017-09-22T11:17:27.595Z,191.25
2017-09-22T11:18:27.634Z,185.63
2017-09-22T11:19:27.683Z,185.63
2017-09-22T11:20:27.724Z,185.63
2017-09-22T11:21:28.033Z,185.63
2017-09-22T11:22:27.788Z,185.63
2017-09-22T11:23:28.017Z,185.63
2017-09-22T11:24:27.841Z,185.63
2017-09-22T11:25:27.890Z,191.25
2017-09-22T11:26:27.905Z,191.25
2017-09-22T11:27:28.294Z,185.63
2017-09-22T11:28:27.982Z,185.63
2017-09-22T11:29:28.019Z,191.25
2017-09-22T11:30:28.042Z,191.25
2017-09-22T11:31:28.089Z,196.88
2017-09-22T11:32:28.117Z,202.50
2017-09-22T11:33:28.514Z,202.50
2017-09-22T11:34:28.190Z,202.50
2017-09-22T11:35:28.233Z,208.13
2017-09-22T11:36:28.259Z,208.13
2017-09-22T11:37:28.293Z,208.13
2017-09-22T11:38:28.379Z,213.75
2017-09-22T11:39:28.364Z,213.75
2017-09-22T11:40:28.696Z,213.75
2017-09-22T11:41:28.428Z,219.38
2017-09-22T11:42:28.476Z,219.38
2017-09-22T11:43:28.505Z,219.38
2017-09-22T11:44:28.585Z,219.38
2017-09-22T11:45:28.571Z,219.38
2017-09-22T11:46:28.910Z,219.38
2017-09-22T11:47:28.649Z,225.00
2017-09-22T11:48:28.723Z,225.00
2017-09-22T11:49:28.706Z,230.63
2017-09-22T11:50:28.743Z,230.63
2017-09-22T11:51:28.783Z,230.63
2017-09-22T11:52:28.811Z,230.63
2017-09-22T11:53:29.214Z,230.63
2017-09-22T11:54:28.886Z,236.25
2017-09-22T11:55:28.921Z,241.88
2017-09-22T11:56:28.953Z,247.50
2017-09-22T11:57:28.998Z,247.50
2017-09-22T11:58:29.029Z,253.13
2017-09-22T11:59:29.512Z,247.50
2017-09-22T12:00:29.094Z,247.50
2017-09-22T12:01:29.130Z,247.50
2017-09-22T12:02:29.164Z,241.88
2017-09-22T12:03:29.200Z,241.88
2017-09-22T12:04:29.254Z,241.88
2017-09-22T12:05:29.675Z,241.88
2017-09-22T12:06:29.307Z,241.88
2017-09-22T12:07:29.356Z,241.88
2017-09-22T12:08:29.434Z,241.88
2017-09-22T12:09:29.407Z,241.88
2017-09-22T12:10:29.451Z,236.25
2017-09-22T12:11:29.836Z,236.25
2017-09-22T12:12:29.518Z,236.25
2017-09-22T12:13:29.552Z,247.50
2017-09-22T12:14:29.588Z,258.75
2017-09-22T12:15:29.620Z,270.00
2017-09-22T12:16:29.663Z,270.00
2017-09-22T12:17:30.049Z,264.38
2017-09-22T12:18:29.742Z,264.38
2017-09-22T12:19:29.815Z,264.38
2017-09-22T12:20:29.805Z,264.38
2017-09-22T12:21:29.845Z,258.75
2017-09-22T12:22:29.893Z,258.75
2017-09-22T12:23:30.213Z,258.75
2017-09-22T12:24:30.246Z,258.75
2017-09-22T12:25:29.977Z,253.13
2017-09-22T12:26:30.024Z,247.50
2017-09-22T12:27:30.044Z,236.25
2017-09-22T12:28:30.081Z,236.25
2017-09-22T12:29:30.168Z,230.63
2017-09-22T12:30:30.453Z,230.63
2017-09-22T12:31:30.194Z,225.00
2017-09-22T12:32:30.220Z,225.00
2017-09-22T12:33:30.260Z,225.00
2017-09-22T12:34:30.441Z,225.00
2017-09-22T12:35:30.329Z,230.63
2017-09-22T12:36:30.672Z,230.63
2017-09-22T12:37:30.408Z,236.25
2017-09-22T12:38:30.434Z,241.88
2017-09-22T12:39:30.469Z,241.88
2017-09-22T12:40:30.774Z,230.63
2017-09-22T12:41:30.542Z,230.63
2017-09-22T12:42:30.882Z,230.63
2017-09-22T12:43:30.630Z,230.63
2017-09-22T12:44:30.646Z,236.25
2017-09-22T12:45:30.685Z,230.63
2017-09-22T12:46:30.764Z,230.63
2017-09-22T12:47:30.759Z,230.63
2017-09-22T12:48:31.085Z,236.25
2017-09-22T12:49:30.825Z,247.50
2017-09-22T12:50:30.959Z,247.50
2017-09-22T12:51:30.893Z,253.13
2017-09-22T12:52:30.949Z,264.38
2017-09-22T12:53:30.968Z,281.25
2017-09-22T12:54:31.001Z,315.00
2017-09-22T12:55:31.083Z,331.88
2017-09-22T12:57:31.114Z,337.50
2017-09-22T12:58:31.145Z,331.88